Aviation Digital Data Service (ADDS)

Output produced by TAFs form (0500 UTC 20 October 2017)
found at http://aviationweather.gov/adds/tafs/
 
KLVS 192329Z 2000/2024 16014KT P6SM BKN100 
     FM200300 20011KT P6SM VCSH BKN060 BKN100 
     FM200600 20011KT P6SM BKN100 
     FM201500 21015G25KT P6SM SKC 
     FM201730 22025G35KT P6SM SKC 
     FM202300 22015G25KT P6SM SKC